Time;durP1;ratioP1;P1;durP2;ratioP2;P2;SDS_P1;SDS_P2;PMS_P1;PMS_P2;Temp;Humidity;BMP_temperature;BMP_pressure;BME280_temperature;BME280_humidity;BME280_pressure;Samples;Min_cycle;Max_cycle;Signal;HPM_P1;HPM_P2
2022/12/10 00:01:29;;;;;;;1999.90;999.90;;;-1.00;99.90;;;;;;4919686;29;20025;-80
2022/12/10 00:03:55;;;;;;;1999.90;999.90;;;-1.10;99.90;;;;;;4930137;29;20381;-81
2022/12/10 00:06:24;;;;;;;1999.90;999.90;;;-1.10;99.90;;;;;;4938422;29;20027;-80
2022/12/10 00:08:51;;;;;;;1999.90;999.90;;;-1.10;99.90;;;;;;4937683;29;20052;-80
2022/12/10 00:11:18;;;;;;;1999.90;999.90;;;-1.10;99.90;;;;;;4936532;29;20487;-81
2022/12/10 00:13:45;;;;;;;1999.90;999.90;;;-1.00;99.90;;;;;;4921220;29;20046;-80
2022/12/10 00:16:13;;;;;;;1999.90;999.90;;;-1.00;99.90;;;;;;4937278;29;20511;-80
2022/12/10 00:18:39;;;;;;;1999.90;999.90;;;-1.00;99.90;;;;;;4915668;29;20416;-80
2022/12/10 00:21:17;;;;;;;1999.90;999.90;;;-1.10;99.90;;;;;;4919471;29;20172;-80
2022/12/10 00:23:43;;;;;;;1999.90;999.90;;;-1.10;99.90;;;;;;4919149;29;20052;-81
2022/12/10 00:26:15;;;;;;;1999.90;999.90;;;-1.10;99.90;;;;;;4940417;29;20063;-80
2022/12/10 00:28:41;;;;;;;1999.90;999.90;;;-1.10;99.90;;;;;;4925910;29;20008;-80
2022/12/10 00:31:13;;;;;;;1999.90;999.90;;;-1.20;99.90;;;;;;4941866;29;20088;-80
2022/12/10 00:33:39;;;;;;;1999.90;999.90;;;-1.20;99.90;;;;;;4942081;29;20000;-80
2022/12/10 00:36:09;;;;;;;1999.90;999.90;;;-1.20;99.90;;;;;;4921486;29;20264;-80
2022/12/10 00:38:35;;;;;;;1999.90;999.90;;;-1.20;99.90;;;;;;4902262;29;20025;-80
2022/12/10 00:41:01;;;;;;;1999.90;999.90;;;-1.30;99.90;;;;;;4918562;29;20024;-80
2022/12/10 00:43:27;;;;;;;1999.90;999.90;;;-1.30;99.90;;;;;;4918906;29;20029;-80
2022/12/10 00:45:53;;;;;;;1999.90;999.90;;;-1.30;99.90;;;;;;4933509;29;20058;-80
2022/12/10 00:48:19;;;;;;;1999.90;999.90;;;-1.30;99.90;;;;;;4938027;29;20813;-80
2022/12/10 00:50:55;;;;;;;1999.90;999.90;;;-1.30;99.90;;;;;;4920815;29;20020;-81
2022/12/10 00:53:20;;;;;;;1999.90;999.90;;;-1.30;99.90;;;;;;4937654;29;20395;-80
2022/12/10 00:55:46;;;;;;;1999.90;999.90;;;-1.30;99.90;;;;;;4920373;29;20034;-81
2022/12/10 00:58:11;;;;;;;1999.90;999.90;;;-1.30;99.90;;;;;;4937853;29;20035;-81
2022/12/10 01:00:37;;;;;;;1999.90;999.90;;;-1.30;99.90;;;;;;4920694;29;20024;-80
2022/12/10 01:03:03;;;;;;;1999.90;999.90;;;-1.30;99.90;;;;;;4937158;29;20122;-81
2022/12/10 01:05:28;;;;;;;1999.90;999.90;;;-1.30;99.90;;;;;;4937034;29;20028;-81
2022/12/10 01:07:54;;;;;;;1999.90;999.90;;;-1.30;99.90;;;;;;4937385;29;20035;-81
2022/12/10 01:10:19;;;;;;;1999.90;999.90;;;-1.30;99.90;;;;;;4936358;29;20035;-80
2022/12/10 01:12:45;;;;;;;1999.90;999.90;;;-1.40;99.90;;;;;;4920489;29;20481;-80
2022/12/10 01:15:11;;;;;;;1999.90;999.90;;;-1.40;99.90;;;;;;4936491;29;20059;-81
2022/12/10 01:17:37;;;;;;;1999.90;999.90;;;-1.40;99.90;;;;;;4905726;29;20023;-80
2022/12/10 01:20:03;;;;;;;1999.90;999.90;;;-1.40;99.90;;;;;;4900622;29;20518;-81
2022/12/10 01:22:28;;;;;;;1999.90;999.90;;;-1.40;99.90;;;;;;4901221;29;20032;-80
2022/12/10 01:24:54;;;;;;;1999.90;999.90;;;-1.40;99.90;;;;;;4917362;29;20641;-80
2022/12/10 01:27:20;;;;;;;1999.90;999.90;;;-1.40;99.90;;;;;;4918063;29;20059;-80
2022/12/10 01:29:45;;;;;;;1999.90;999.90;;;-1.40;99.90;;;;;;4918062;29;20082;-81
2022/12/10 01:32:11;;;;;;;1999.90;999.90;;;-1.40;99.90;;;;;;4918112;29;20035;-80
2022/12/10 01:34:36;;;;;;;1999.90;999.90;;;-1.40;99.90;;;;;;4917860;29;20047;-80
2022/12/10 01:37:02;;;;;;;1999.90;999.90;;;-1.40;99.90;;;;;;4917930;29;20038;-80
2022/12/10 01:39:28;;;;;;;1999.90;999.90;;;-1.40;99.90;;;;;;4916737;29;20081;-80
2022/12/10 01:41:58;;;;;;;1999.90;999.90;;;-1.40;99.90;;;;;;4917416;29;20035;-81
2022/12/10 01:44:24;;;;;;;1999.90;999.90;;;-1.30;99.90;;;;;;4921170;29;20035;-80
2022/12/10 01:46:53;;;;;;;1999.90;999.90;;;-1.40;99.90;;;;;;4936759;29;20024;-80
2022/12/10 01:49:21;;;;;;;1999.90;999.90;;;-1.30;99.90;;;;;;4936703;29;20023;-80
2022/12/10 01:51:50;;;;;;;1999.90;999.90;;;-1.30;99.90;;;;;;4936759;29;20028;-80
2022/12/10 01:54:23;;;;;;;1999.90;999.90;;;-1.30;99.90;;;;;;4936806;29;20048;-81
2022/12/10 01:56:58;;;;;;;1999.90;999.90;;;-1.30;99.90;;;;;;4936565;29;20107;-81
2022/12/10 01:59:25;;;;;;;1999.90;999.90;;;-1.30;99.90;;;;;;4919569;29;20487;-80
2022/12/10 02:01:50;;;;;;;1999.90;999.90;;;-1.30;99.90;;;;;;4936588;29;20032;-81
2022/12/10 02:04:44;;;;;;;1999.90;999.90;;;-1.30;99.90;;;;;;4919279;29;20502;-80
2022/12/10 02:07:36;;;;;;;1999.90;999.90;;;-1.30;99.90;;;;;;4936339;29;20482;-80
2022/12/10 02:10:02;;;;;;;1999.90;999.90;;;-1.30;99.90;;;;;;4924963;29;20120;-80
2022/12/10 02:12:46;;;;;;;1999.90;999.90;;;-1.30;99.90;;;;;;4919425;29;20114;-80
2022/12/10 02:15:20;;;;;;;1999.90;999.90;;;-1.30;99.90;;;;;;4906522;29;20059;-80
2022/12/10 02:18:00;;;;;;;1999.90;999.90;;;-1.30;99.90;;;;;;4920577;29;20399;-80
2022/12/10 02:20:49;;;;;;;1999.90;999.90;;;-1.30;99.90;;;;;;4935304;29;20098;-80
2022/12/10 02:23:22;;;;;;;1999.90;999.90;;;-1.30;99.90;;;;;;4935262;29;20051;-80
2022/12/10 02:25:49;;;;;;;1999.90;999.90;;;-1.30;99.90;;;;;;4935593;29;20035;-81
2022/12/10 02:28:18;;;;;;;1999.90;999.90;;;-1.30;99.90;;;;;;4934764;29;20027;-81
2022/12/10 02:30:46;;;;;;;1999.90;999.90;;;-1.30;99.90;;;;;;4919133;29;20024;-80
2022/12/10 02:33:14;;;;;;;1999.90;999.90;;;-1.30;99.90;;;;;;4936066;29;20024;-80
2022/12/10 02:35:41;;;;;;;1999.90;999.90;;;-1.30;99.90;;;;;;4925418;29;20049;-81
2022/12/10 02:38:25;;;;;;;1999.90;999.90;;;-1.30;99.90;;;;;;4916814;29;20028;-80
2022/12/10 02:40:57;;;;;;;1999.90;999.90;;;-1.30;99.90;;;;;;4916751;29;20030;-80
2022/12/10 02:43:24;;;;;;;1999.90;999.90;;;-1.40;99.90;;;;;;4915578;29;20411;-80
2022/12/10 02:45:50;;;;;;;1999.90;999.90;;;-1.40;99.90;;;;;;4930940;29;20031;-80
2022/12/10 02:48:18;;;;;;;1999.90;999.90;;;-1.40;99.90;;;;;;4935858;29;20511;-81
2022/12/10 02:50:44;;;;;;;1999.90;999.90;;;-1.40;99.90;;;;;;4935915;29;20027;-80
2022/12/10 02:53:10;;;;;;;1999.90;999.90;;;-1.40;99.90;;;;;;4935822;29;20019;-80
2022/12/10 02:55:55;;;;;;;1999.90;999.90;;;-1.40;99.90;;;;;;4935098;29;20046;-81
2022/12/10 02:58:33;;;;;;;1999.90;999.90;;;-1.40;99.90;;;;;;4935714;29;20059;-80
2022/12/10 03:01:24;;;;;;;1999.90;999.90;;;-1.40;99.90;;;;;;4918616;29;20468;-81
2022/12/10 03:03:59;;;;;;;1999.90;999.90;;;-1.40;99.90;;;;;;4889327;29;20040;-80
2022/12/10 03:06:34;;;;;;;1999.90;999.90;;;-1.40;99.90;;;;;;4935460;29;20479;-80
2022/12/10 03:09:08;;;;;;;1999.90;999.90;;;-1.40;99.90;;;;;;4935382;29;20020;-80
2022/12/10 03:11:35;;;;;;;1999.90;999.90;;;-1.40;99.90;;;;;;4934625;29;20038;-80
2022/12/10 03:14:15;;;;;;;1999.90;999.90;;;-1.40;99.90;;;;;;4934904;29;20051;-80
2022/12/10 03:16:49;;;;;;;1999.90;999.90;;;-1.40;99.90;;;;;;4928393;29;20036;-80
2022/12/10 03:19:18;;;;;;;1999.90;999.90;;;-1.40;99.90;;;;;;4899219;29;20036;-80
2022/12/10 03:21:46;;;;;;;1999.90;999.90;;;-1.40;99.90;;;;;;4915793;29;20036;-80
2022/12/10 03:24:13;;;;;;;1999.90;999.90;;;-1.30;99.90;;;;;;4915921;29;20056;-80
2022/12/10 03:26:41;;;;;;;1999.90;999.90;;;-1.30;99.90;;;;;;4898960;29;20126;-80
2022/12/10 03:29:10;;;;;;;1999.90;999.90;;;-1.30;99.90;;;;;;4916350;29;20030;-80
2022/12/10 03:31:39;;;;;;;1999.90;999.90;;;-1.20;99.90;;;;;;4916287;29;20493;-80
2022/12/10 03:34:06;;;;;;;1999.90;999.90;;;-1.20;99.90;;;;;;4919385;29;20095;-80
2022/12/10 03:36:33;;;;;;;1999.90;999.90;;;-1.30;99.90;;;;;;4922407;29;20035;-80
2022/12/10 03:38:59;;;;;;;1999.90;999.90;;;-1.30;99.90;;;;;;4905988;29;20024;-81
2022/12/10 03:41:25;;;;;;;1999.90;999.90;;;-1.30;99.90;;;;;;4921767;29;20036;-81
2022/12/10 03:43:58;;;;;;;1999.90;999.90;;;-1.30;99.90;;;;;;4905477;29;20119;-80
2022/12/10 03:46:26;;;;;;;1999.90;999.90;;;-1.40;99.90;;;;;;4941057;29;20046;-80
2022/12/10 03:48:52;;;;;;;1999.90;999.90;;;-1.40;99.90;;;;;;4941426;29;20020;-80
2022/12/10 03:51:18;;;;;;;1999.90;999.90;;;-1.40;99.90;;;;;;4941408;29;20036;-80
2022/12/10 03:53:43;;;;;;;1999.90;999.90;;;-1.40;99.90;;;;;;4941453;29;20024;-80
2022/12/10 03:56:09;;;;;;;1999.90;999.90;;;-1.50;99.90;;;;;;4941007;29;20392;-80
2022/12/10 03:58:35;;;;;;;1999.90;999.90;;;-1.50;99.90;;;;;;4941733;29;20111;-80
2022/12/10 04:01:02;;;;;;;1999.90;999.90;;;-1.60;99.90;;;;;;4924322;29;20127;-80
2022/12/10 04:03:28;;;;;;;1999.90;999.90;;;-1.60;99.90;;;;;;4941013;29;20030;-80
2022/12/10 04:05:53;;;;;;;1999.90;999.90;;;-1.60;99.90;;;;;;4941093;29;20040;-81
2022/12/10 04:08:19;;;;;;;1999.90;999.90;;;-1.70;99.90;;;;;;4924158;29;20031;-80
2022/12/10 04:10:45;;;;;;;1999.90;999.90;;;-1.60;99.90;;;;;;4940996;29;20475;-80
2022/12/10 04:18:41;;;;;;;1999.90;999.90;;;-1.60;99.90;;;;;;4929172;29;20131;-80
2022/12/10 04:26:53;;;;;;;1999.90;999.90;;;-1.80;99.90;;;;;;4921798;29;20488;-80
2022/12/10 04:29:23;;;;;;;1999.90;999.90;;;-1.80;99.90;;;;;;4921996;29;20464;-80
2022/12/10 04:31:49;;;;;;;1999.90;999.90;;;-1.80;99.90;;;;;;4921776;29;20511;-80
2022/12/10 04:34:15;;;;;;;1999.90;999.90;;;-1.80;99.90;;;;;;4905146;29;20024;-81
2022/12/10 04:36:40;;;;;;;1999.90;999.90;;;-1.70;99.90;;;;;;4904885;29;20119;-81
2022/12/10 04:39:06;;;;;;;1999.90;999.90;;;-1.70;99.90;;;;;;4905162;29;20081;-81
2022/12/10 04:41:32;;;;;;;1999.90;999.90;;;-1.80;99.90;;;;;;4920369;29;20028;-81
2022/12/10 04:43:57;;;;;;;1999.90;999.90;;;-1.80;99.90;;;;;;4921998;29;20373;-80
2022/12/10 04:46:23;;;;;;;1999.90;999.90;;;-1.80;99.90;;;;;;4937720;29;20028;-80
2022/12/10 04:48:49;;;;;;;1999.90;999.90;;;-1.80;99.90;;;;;;4920781;29;20376;-80
2022/12/10 04:51:14;;;;;;;1999.90;999.90;;;-1.80;99.90;;;;;;4937924;29;20043;-80
2022/12/10 04:53:40;;;;;;;1999.90;999.90;;;-1.80;99.90;;;;;;4937874;29;20027;-81
2022/12/10 04:56:06;;;;;;;1999.90;999.90;;;-1.80;99.90;;;;;;4920397;29;20054;-80
2022/12/10 04:58:33;;;;;;;1999.90;999.90;;;-1.80;99.90;;;;;;4920868;29;20407;-81
2022/12/10 05:01:07;;;;;;;1999.90;999.90;;;-1.80;99.90;;;;;;4937739;29;20076;-80
2022/12/10 05:03:32;;;;;;;1999.90;999.90;;;-1.80;99.90;;;;;;4937414;29;20061;-80
2022/12/10 05:06:17;;;;;;;1999.90;999.90;;;-1.80;99.90;;;;;;4937141;29;20032;-80
2022/12/10 05:08:43;;;;;;;1999.90;999.90;;;-1.80;99.90;;;;;;4919842;29;20070;-80
2022/12/10 05:11:12;;;;;;;1999.90;999.90;;;-1.90;99.90;;;;;;4937492;29;20071;-80
2022/12/10 05:13:39;;;;;;;1999.90;999.90;;;-1.80;99.90;;;;;;4937451;29;20063;-80
2022/12/10 05:16:06;;;;;;;1999.90;999.90;;;-1.80;99.90;;;;;;4936813;29;20032;-80
2022/12/10 05:18:32;;;;;;;1999.90;999.90;;;-1.80;99.90;;;;;;4917650;29;20159;-80
2022/12/10 05:20:59;;;;;;;1999.90;999.90;;;-1.80;99.90;;;;;;4917498;29;20032;-80
2022/12/10 05:23:28;;;;;;;1999.90;999.90;;;-1.80;99.90;;;;;;4918265;29;20063;-80
2022/12/10 05:26:04;;;;;;;1999.90;999.90;;;-1.80;99.90;;;;;;4917717;29;20503;-80
2022/12/10 05:28:31;;;;;;;1999.90;999.90;;;-1.80;99.90;;;;;;4918241;29;20012;-80
2022/12/10 05:30:58;;;;;;;1999.90;999.90;;;-1.90;99.90;;;;;;4918238;29;20032;-80
2022/12/10 05:33:24;;;;;;;1999.90;999.90;;;-1.90;99.90;;;;;;4918141;29;20028;-80
2022/12/10 05:35:58;;;;;;;1999.90;999.90;;;-1.90;99.90;;;;;;4901054;29;20040;-80
2022/12/10 05:38:24;;;;;;;1999.90;999.90;;;-1.80;99.90;;;;;;4918281;29;20036;-80
2022/12/10 05:40:50;;;;;;;1999.90;999.90;;;-1.80;99.90;;;;;;4917859;29;20506;-80
2022/12/10 05:43:16;;;;;;;1999.90;999.90;;;-1.90;99.90;;;;;;4917807;29;20063;-80
2022/12/10 05:45:42;;;;;;;1999.90;999.90;;;-1.90;99.90;;;;;;4931077;29;20032;-80
2022/12/10 05:48:09;;;;;;;1999.90;999.90;;;-1.90;99.90;;;;;;4936968;29;20028;-77
2022/12/10 05:50:35;;;;;;;1999.90;999.90;;;-1.90;99.90;;;;;;4937166;29;20024;-80
2022/12/10 05:53:01;;;;;;;1999.90;999.90;;;-1.90;99.90;;;;;;4919765;29;20443;-80
2022/12/10 05:55:28;;;;;;;1999.90;999.90;;;-2.00;99.90;;;;;;4919205;29;20035;-80
2022/12/10 05:57:55;;;;;;;1999.90;999.90;;;-2.00;99.90;;;;;;4936105;29;20102;-80
2022/12/10 06:00:23;;;;;;;1999.90;999.90;;;-1.90;99.90;;;;;;4919432;29;20130;-80
2022/12/10 06:02:49;;;;;;;1999.90;999.90;;;-1.90;99.90;;;;;;4936642;29;20051;-80
2022/12/10 06:05:15;;;;;;;1999.90;999.90;;;-1.90;99.90;;;;;;4931582;29;20583;-80
2022/12/10 06:07:41;;;;;;;1999.90;999.90;;;-2.00;99.90;;;;;;4936313;29;20020;-80
2022/12/10 06:10:07;;;;;;;1999.90;999.90;;;-1.90;99.90;;;;;;4936151;29;20032;-80
2022/12/10 06:12:33;;;;;;;1999.90;999.90;;;-2.00;99.90;;;;;;4919129;29;20124;-80
2022/12/10 06:14:58;;;;;;;1999.90;999.90;;;-2.00;99.90;;;;;;4922062;29;20083;-81
2022/12/10 06:17:24;;;;;;;1999.90;999.90;;;-2.10;99.90;;;;;;4922277;29;20028;-80
2022/12/10 06:19:49;;;;;;;1999.90;999.90;;;-2.10;99.90;;;;;;4935931;29;20061;-80
2022/12/10 06:22:15;;;;;;;1999.90;999.90;;;-2.10;99.90;;;;;;4933926;29;20046;-80
2022/12/10 06:24:41;;;;;;;1999.90;999.90;;;-2.00;99.90;;;;;;4936079;29;20093;-80
2022/12/10 06:27:07;;;;;;;1999.90;999.90;;;-2.10;99.90;;;;;;4935625;29;20423;-80
2022/12/10 06:29:32;;;;;;;1999.90;999.90;;;-2.10;99.90;;;;;;4928524;29;20039;-80
2022/12/10 06:31:58;;;;;;;1999.90;999.90;;;-2.20;99.90;;;;;;4940864;29;20032;-80
2022/12/10 06:34:23;;;;;;;1999.90;999.90;;;-2.10;99.90;;;;;;4937427;29;20095;-82
2022/12/10 06:36:49;;;;;;;1999.90;999.90;;;-2.20;99.90;;;;;;4940660;29;20012;-82
2022/12/10 06:39:15;;;;;;;1999.90;999.90;;;-2.20;99.90;;;;;;4924763;29;20395;-83
2022/12/10 06:41:43;;;;;;;1999.90;999.90;;;-2.20;99.90;;;;;;4929872;29;20079;-82
2022/12/10 06:44:10;;;;;;;1999.90;999.90;;;-2.30;99.90;;;;;;4929996;29;20028;-82
2022/12/10 06:46:36;;;;;;;1999.90;999.90;;;-2.30;99.90;;;;;;4923272;29;20558;-83
2022/12/10 06:49:02;;;;;;;1999.90;999.90;;;-2.30;99.90;;;;;;4918775;29;20124;-83
2022/12/10 06:51:28;;;;;;;1999.90;999.90;;;-2.30;99.90;;;;;;4918542;29;20447;-83
2022/12/10 06:53:54;;;;;;;1999.90;999.90;;;-2.30;99.90;;;;;;4935811;29;20074;-83
2022/12/10 06:56:20;;;;;;;1999.90;999.90;;;-2.40;99.90;;;;;;4935377;29;20043;-82
2022/12/10 06:58:46;;;;;;;1999.90;999.90;;;-2.40;99.90;;;;;;4935941;29;20104;-83
2022/12/10 07:01:21;;;;;;;1999.90;999.90;;;-2.50;99.90;;;;;;4935708;29;20035;-83
2022/12/10 07:03:52;;;;;;;1999.90;999.90;;;-2.50;99.90;;;;;;4935309;29;20471;-83
2022/12/10 07:06:19;;;;;;;1999.90;999.90;;;-2.50;99.90;;;;;;4935197;29;20039;-82
2022/12/10 07:08:45;;;;;;;1999.90;999.90;;;-2.60;99.90;;;;;;4933461;29;20423;-82
2022/12/10 07:11:13;;;;;;;1999.90;999.90;;;-2.60;99.90;;;;;;4917987;29;20026;-82
2022/12/10 07:13:39;;;;;;;1999.90;999.90;;;-2.60;99.90;;;;;;4931108;29;20036;-82
2022/12/10 07:16:12;;;;;;;1999.90;999.90;;;-2.60;99.90;;;;;;4915522;29;20039;-83
2022/12/10 07:18:38;;;;;;;1999.90;999.90;;;-2.70;99.90;;;;;;4915501;29;20494;-82
2022/12/10 07:21:14;;;;;;;1999.90;999.90;;;-2.70;99.90;;;;;;4935236;29;20059;-82
2022/12/10 07:23:39;;;;;;;1999.90;999.90;;;-2.70;99.90;;;;;;4932987;29;20142;-83
2022/12/10 07:26:05;;;;;;;1999.90;999.90;;;-2.70;99.90;;;;;;4934455;29;20178;-82
2022/12/10 07:28:30;;;;;;;1999.90;999.90;;;-2.70;99.90;;;;;;4918075;29;20024;-83
2022/12/10 07:31:04;;;;;;;1999.90;999.90;;;-2.70;99.90;;;;;;4918038;29;20070;-81
2022/12/10 07:33:30;;;;;;;1999.90;999.90;;;-2.70;99.90;;;;;;4935124;29;20043;-80
2022/12/10 07:35:56;;;;;;;1999.90;999.90;;;-2.70;99.90;;;;;;4933745;29;20039;-81
2022/12/10 07:38:23;;;;;;;1999.90;999.90;;;-2.70;99.90;;;;;;4934999;29;20027;-81
2022/12/10 07:40:49;;;;;;;1999.90;999.90;;;-2.70;99.90;;;;;;4934775;29;20032;-80
2022/12/10 07:43:14;;;;;;;1999.90;999.90;;;-2.70;99.90;;;;;;4934933;29;20431;-83
2022/12/10 07:45:40;;;;;;;1999.90;999.90;;;-2.70;99.90;;;;;;4934754;29;20032;-83
2022/12/10 07:48:06;;;;;;;1999.90;999.90;;;-2.60;99.90;;;;;;4934724;29;20060;-83
2022/12/10 07:50:31;;;;;;;1999.90;999.90;;;-2.70;99.90;;;;;;4925930;29;20582;-83
2022/12/10 07:52:57;;;;;;;1999.90;999.90;;;-2.70;99.90;;;;;;4916081;29;20543;-82
2022/12/10 07:55:22;;;;;;;1999.90;999.90;;;-2.70;99.90;;;;;;4915472;29;20042;-82
2022/12/10 07:57:48;;;;;;;1999.90;999.90;;;-2.60;99.90;;;;;;4915758;29;20103;-83
2022/12/10 08:00:14;;;;;;;1999.90;999.90;;;-2.60;99.90;;;;;;4915838;29;20020;-83
2022/12/10 08:02:39;;;;;;;1999.90;999.90;;;-2.60;99.90;;;;;;4916634;29;20025;-82
2022/12/10 08:05:05;;;;;;;1999.90;999.90;;;-2.60;99.90;;;;;;4934808;29;20032;-83
2022/12/10 08:07:32;;;;;;;1999.90;999.90;;;-2.50;99.90;;;;;;4917382;29;20122;-83
2022/12/10 08:09:57;;;;;;;1999.90;999.90;;;-2.40;99.90;;;;;;4934450;29;20051;-83
2022/12/10 08:12:23;;;;;;;1999.90;999.90;;;-2.40;99.90;;;;;;4917543;29;20031;-82
2022/12/10 08:14:49;;;;;;;1999.90;999.90;;;-2.40;99.90;;;;;;4925311;29;20032;-83
2022/12/10 08:17:14;;;;;;;1999.90;999.90;;;-2.30;99.90;;;;;;4916018;29;20063;-82
2022/12/10 08:19:40;;;;;;;1999.90;999.90;;;-2.20;99.90;;;;;;4916007;29;20032;-83
2022/12/10 08:22:06;;;;;;;1999.90;999.90;;;-2.20;99.90;;;;;;4938016;29;20082;-83
2022/12/10 08:24:31;;;;;;;1999.90;999.90;;;-2.00;99.90;;;;;;4937199;29;20514;-83
2022/12/10 08:26:57;;;;;;;1999.90;999.90;;;-2.00;99.90;;;;;;4937796;29;20024;-83
2022/12/10 08:29:23;;;;;;;1999.90;999.90;;;-1.90;99.90;;;;;;4938158;29;20038;-83
2022/12/10 08:31:48;;;;;;;1999.90;999.90;;;-1.80;99.90;;;;;;4938042;29;20019;-83
2022/12/10 08:34:17;;;;;;;1999.90;999.90;;;-1.70;99.90;;;;;;4938072;29;20087;-83
2022/12/10 08:36:43;;;;;;;1999.90;999.90;;;-1.50;99.90;;;;;;4938317;29;20027;-83
2022/12/10 08:39:16;;;;;;;1999.90;999.90;;;-1.20;99.90;;;;;;4937968;29;20447;-83
2022/12/10 08:41:45;;;;;;;1999.90;999.90;;;-0.20;99.90;;;;;;4937610;29;20071;-83
2022/12/10 08:44:11;;;;;;;1999.90;999.90;;;-0.10;99.90;;;;;;4937860;29;20036;-83
2022/12/10 08:46:37;;;;;;;1999.90;999.90;;;-0.20;99.90;;;;;;4920914;29;20107;-83
2022/12/10 08:49:04;;;;;;;1999.90;999.90;;;0.00;99.90;;;;;;4920757;29;20118;-83
2022/12/10 08:51:29;;;;;;;1999.90;999.90;;;-0.10;99.90;;;;;;4937685;29;20050;-83
2022/12/10 08:53:55;;;;;;;1999.90;999.90;;;-0.10;99.90;;;;;;4920727;29;20490;-82
2022/12/10 08:56:21;;;;;;;1999.90;999.90;;;-0.20;99.90;;;;;;4937460;29;20094;-81
2022/12/10 08:58:46;;;;;;;1999.90;999.90;;;-0.30;99.90;;;;;;4938033;29;20036;-81
2022/12/10 09:01:15;;;;;;;1999.90;999.90;;;-0.40;99.90;;;;;;4937579;29;20028;-81
2022/12/10 09:03:41;;;;;;;1999.90;999.90;;;-0.40;99.90;;;;;;4920220;29;20035;-81
2022/12/10 09:06:10;;;;;;;1999.90;999.90;;;-0.40;99.90;;;;;;4937368;29;20443;-81
2022/12/10 09:08:36;;;;;;;1999.90;999.90;;;-0.30;99.90;;;;;;4936113;29;20027;-81
2022/12/10 09:11:17;;;;;;;1999.90;999.90;;;-0.30;99.90;;;;;;4937345;29;20035;-81
2022/12/10 09:13:43;;;;;;;1999.90;999.90;;;-0.20;99.90;;;;;;4935609;29;20036;-80
2022/12/10 09:16:09;;;;;;;1999.90;999.90;;;-0.10;99.90;;;;;;4916917;29;20440;-80
2022/12/10 09:18:34;;;;;;;1999.90;999.90;;;-0.10;99.90;;;;;;4918163;29;20029;-81
2022/12/10 09:21:03;;;;;;;1999.90;999.90;;;0.00;99.90;;;;;;4918310;29;20032;-80
2022/12/10 09:23:29;;;;;;;1999.90;999.90;;;0.10;99.90;;;;;;4900673;29;20058;-81
2022/12/10 09:25:55;;;;;;;1999.90;999.90;;;0.10;99.90;;;;;;4916813;29;20036;-80
2022/12/10 09:28:21;;;;;;;1999.90;999.90;;;0.20;99.90;;;;;;4918129;29;20055;-81
2022/12/10 09:30:55;;;;;;;1999.90;999.90;;;0.30;99.90;;;;;;4917814;29;20073;-81
2022/12/10 09:33:21;;;;;;;1999.90;999.90;;;0.40;99.90;;;;;;4917707;29;20079;-81
2022/12/10 09:35:47;;;;;;;1999.90;999.90;;;0.50;99.90;;;;;;4900760;29;20036;-81
2022/12/10 09:38:12;;;;;;;1999.90;999.90;;;0.60;99.90;;;;;;4917946;29;20119;-81
2022/12/10 09:40:47;;;;;;;1999.90;999.90;;;0.70;99.90;;;;;;4917634;29;20116;-81
2022/12/10 09:43:22;;;;;;;1999.90;999.90;;;0.80;99.90;;;;;;4918006;29;20036;-81
2022/12/10 09:46:01;;;;;;;1999.90;999.90;;;0.90;99.90;;;;;;4931528;29;20035;-80
2022/12/10 09:49:05;;;;;;;1999.90;999.90;;;1.00;99.90;;;;;;4919767;29;20513;-80
2022/12/10 09:51:35;;;;;;;1999.90;999.90;;;1.10;99.90;;;;;;4877935;29;20170;-80
2022/12/10 09:54:04;;;;;;;1999.90;999.90;;;1.20;99.90;;;;;;4877920;29;20045;-80
2022/12/10 09:56:35;;;;;;;1999.90;999.90;;;1.30;99.90;;;;;;4877864;29;20036;-80
2022/12/10 09:59:15;;;;;;;1999.90;999.90;;;1.50;99.90;;;;;;4878111;29;20045;-81
2022/12/10 10:01:42;;;;;;;1999.90;999.90;;;1.60;99.90;;;;;;4869502;29;20114;-80
2022/12/10 10:04:09;;;;;;;1999.90;999.90;;;1.80;99.90;;;;;;4882374;29;20025;-80
2022/12/10 10:06:35;;;;;;;1999.90;999.90;;;2.00;99.90;;;;;;4880003;29;20168;-80
2022/12/10 10:09:02;;;;;;;1999.90;999.90;;;2.10;99.90;;;;;;4877999;29;20457;-80
2022/12/10 10:11:31;;;;;;;1999.90;999.90;;;2.30;99.90;;;;;;4877350;29;20029;-80
2022/12/10 10:14:06;;;;;;;1999.90;999.90;;;2.30;99.90;;;;;;4874600;29;20033;-80
2022/12/10 10:16:38;;;;;;;1999.90;999.90;;;2.40;99.90;;;;;;4859539;29;20035;-80
2022/12/10 10:19:17;;;;;;;1999.90;999.90;;;2.50;99.90;;;;;;4858963;29;20039;-80
2022/12/10 10:21:46;;;;;;;1999.90;999.90;;;2.50;99.90;;;;;;4858685;29;20045;-80
2022/12/10 10:24:16;;;;;;;1999.90;999.90;;;2.60;99.90;;;;;;4858362;29;20141;-80
2022/12/10 10:26:43;;;;;;;1999.90;999.90;;;2.70;99.90;;;;;;4892790;29;20059;-80
2022/12/10 10:29:12;;;;;;;1999.90;999.90;;;2.80;99.90;;;;;;4893883;29;20031;-80
2022/12/10 10:31:41;;;;;;;1999.90;999.90;;;3.00;99.90;;;;;;4879268;29;20497;-80
2022/12/10 10:34:22;;;;;;;1999.90;999.90;;;3.10;99.90;;;;;;4893532;29;20029;-80
2022/12/10 10:36:55;;;;;;;1999.90;999.90;;;3.20;99.90;;;;;;4879533;29;20029;-80
2022/12/10 10:39:29;;;;;;;1999.90;999.90;;;3.30;99.90;;;;;;4879197;29;20453;-80
2022/12/10 10:41:57;;;;;;;1999.90;999.90;;;3.40;99.90;;;;;;4878840;29;20021;-80
2022/12/10 10:44:27;;;;;;;1999.90;999.90;;;3.60;99.90;;;;;;4899167;29;20070;-80
2022/12/10 10:46:55;;;;;;;1999.90;999.90;;;3.80;99.90;;;;;;4916732;29;20028;-80
2022/12/10 10:49:27;;;;;;;1999.90;999.90;;;4.00;99.90;;;;;;4916553;29;20024;-80
2022/12/10 10:51:58;;;;;;;1999.90;999.90;;;4.00;99.90;;;;;;4915503;29;20056;-80
2022/12/10 10:54:44;;;;;;;1999.90;999.90;;;4.00;99.90;;;;;;4916626;29;20476;-80
2022/12/10 10:57:29;;;;;;;1999.90;999.90;;;4.30;99.90;;;;;;4916790;29;20024;-80
2022/12/10 11:00:02;;;;;;;1999.90;999.90;;;4.40;99.90;;;;;;4915350;29;20043;-80
2022/12/10 11:02:40;;;;;;;1999.90;999.90;;;4.60;99.90;;;;;;4916386;29;20025;-80
2022/12/10 11:05:28;;;;;;;1999.90;999.90;;;4.80;99.90;;;;;;4879144;29;20069;-80
2022/12/10 11:08:03;;;;;;;1999.90;999.90;;;4.70;99.90;;;;;;4877214;29;20045;-80
2022/12/10 11:10:29;;;;;;;1999.90;999.90;;;4.90;99.90;;;;;;4878633;29;20029;-80
2022/12/10 11:13:05;;;;;;;1999.90;999.90;;;5.10;99.90;;;;;;4878809;29;20104;-80
2022/12/10 11:15:41;;;;;;;1999.90;999.90;;;5.20;99.90;;;;;;4892739;29;20119;-80
2022/12/10 11:18:27;;;;;;;1999.90;999.90;;;5.30;99.90;;;;;;4895728;29;20033;-80
2022/12/10 11:21:00;;;;;;;1999.90;999.90;;;5.30;99.90;;;;;;4897396;29;20105;-80
2022/12/10 11:23:40;;;;;;;1999.90;999.90;;;5.30;99.90;;;;;;4891525;29;20061;-80
2022/12/10 11:26:18;;;;;;;1999.90;999.90;;;5.20;99.90;;;;;;4876281;29;20044;-80
2022/12/10 11:29:01;;;;;;;1999.90;999.90;;;5.00;99.90;;;;;;4877569;29;20370;-80
2022/12/10 11:31:52;;;;;;;1999.90;999.90;;;5.00;99.90;;;;;;4877161;29;20393;-80
2022/12/10 11:34:26;;;;;;;1999.90;999.90;;;5.00;99.90;;;;;;4877382;29;20025;-80
2022/12/10 11:37:14;;;;;;;1999.90;999.90;;;4.90;99.90;;;;;;4877672;29;20064;-80
2022/12/10 11:40:02;;;;;;;1999.90;999.90;;;4.80;99.90;;;;;;4878538;29;20025;-79
2022/12/10 11:43:16;;;;;;;1999.90;999.90;;;5.00;99.90;;;;;;4877080;29;20415;-80
2022/12/10 11:45:48;;;;;;;1999.90;999.90;;;5.10;99.90;;;;;;4835233;29;20041;-80
2022/12/10 11:48:33;;;;;;;1999.90;999.90;;;5.30;99.90;;;;;;4877141;29;20089;-80
2022/12/10 11:51:16;;;;;;;1999.90;999.90;;;5.40;99.90;;;;;;4877371;29;20032;-80
2022/12/10 11:54:14;;;;;;;1999.90;999.90;;;5.50;99.90;;;;;;4877089;29;20029;-81
2022/12/10 11:57:09;;;;;;;1999.90;999.90;;;5.40;99.90;;;;;;4882162;29;20524;-80
2022/12/10 11:59:39;;;;;;;1999.90;999.90;;;5.50;99.90;;;;;;4881040;29;20453;-80
2022/12/10 12:02:08;;;;;;;1999.90;999.90;;;5.50;99.90;;;;;;4882117;29;20025;-80
2022/12/10 12:05:15;;;;;;;1999.90;999.90;;;5.70;99.90;;;;;;4896090;29;20043;-80
2022/12/10 12:08:09;;;;;;;1999.90;999.90;;;5.60;99.90;;;;;;4900775;29;20032;-80
2022/12/10 12:10:59;;;;;;;1999.90;999.90;;;5.60;99.90;;;;;;4886540;29;20060;-80
2022/12/10 12:13:33;;;;;;;1999.90;999.90;;;5.90;99.90;;;;;;4900769;29;20025;-82
2022/12/10 12:16:09;;;;;;;1999.90;999.90;;;5.90;99.90;;;;;;4900499;29;20048;-81
2022/12/10 12:18:48;;;;;;;1999.90;999.90;;;5.80;99.90;;;;;;4895978;29;20564;-80
2022/12/10 12:21:16;;;;;;;1999.90;999.90;;;5.90;99.90;;;;;;4881879;29;20037;-80
2022/12/10 12:23:57;;;;;;;1999.90;999.90;;;6.10;99.90;;;;;;4893796;29;20048;-80
2022/12/10 12:26:39;;;;;;;1999.90;999.90;;;6.20;99.90;;;;;;4918026;29;20099;-80